createdAt,value
2022-09-15T00:01:03.119Z,15.29
2022-09-15T00:03:29.785Z,15.34
2022-09-15T00:05:56.628Z,15.39
2022-09-15T00:08:24.238Z,15.34
2022-09-15T00:10:58.291Z,15.27
2022-09-15T00:13:25.835Z,15.21
2022-09-15T00:15:53.259Z,15.16
2022-09-15T00:18:20.307Z,15.13
2022-09-15T00:20:46.999Z,15.20
2022-09-15T00:23:15.964Z,15.12
2022-09-15T00:25:53.311Z,15.11
2022-09-15T00:28:22.696Z,15.06
2022-09-15T00:30:54.655Z,15.03
2022-09-15T00:33:23.163Z,15.04
2022-09-15T00:35:53.326Z,14.98
2022-09-15T00:38:20.939Z,14.93
2022-09-15T00:40:52.724Z,14.90
2022-09-15T00:43:42.264Z,14.92
2022-09-15T00:46:10.258Z,14.82
2022-09-15T00:48:43.203Z,14.84
2022-09-15T00:51:14.500Z,14.83
2022-09-15T00:53:42.287Z,14.81
2022-09-15T00:56:14.439Z,14.87
2022-09-15T00:58:50.135Z,14.93
2022-09-15T01:01:17.227Z,14.89
2022-09-15T01:03:44.177Z,14.87
2022-09-15T01:06:50.191Z,14.85
2022-09-15T01:09:26.846Z,14.78
2022-09-15T01:11:53.526Z,14.61
2022-09-15T01:14:20.066Z,14.59
2022-09-15T01:17:03.780Z,14.69
2022-09-15T01:19:46.535Z,14.72
2022-09-15T01:22:34.889Z,14.81
2022-09-15T01:25:51.296Z,14.84
2022-09-15T01:29:12.807Z,14.80
2022-09-15T01:32:16.346Z,14.61
2022-09-15T01:35:00.688Z,14.59
2022-09-15T01:37:36.840Z,14.58
2022-09-15T01:40:05.185Z,14.56
2022-09-15T01:42:34.797Z,14.60
2022-09-15T01:45:09.182Z,14.64
2022-09-15T01:47:37.406Z,14.70
2022-09-15T01:50:13.669Z,14.68
2022-09-15T01:52:48.801Z,14.62
2022-09-15T01:55:25.184Z,14.62
2022-09-15T01:57:51.903Z,14.62
2022-09-15T02:00:18.474Z,14.56
2022-09-15T02:02:58.733Z,14.54
2022-09-15T02:05:44.895Z,14.55
2022-09-15T02:08:31.618Z,14.52
2022-09-15T02:11:14.663Z,14.52
2022-09-15T02:14:11.400Z,14.45
2022-09-15T02:16:43.675Z,14.44
2022-09-15T02:19:31.090Z,14.42
2022-09-15T02:22:11.006Z,14.33
2022-09-15T02:24:49.374Z,14.18
2022-09-15T02:27:25.228Z,14.03
2022-09-15T02:30:00.995Z,13.95
2022-09-15T02:32:31.134Z,13.72
2022-09-15T02:35:01.678Z,13.67
2022-09-15T02:37:28.590Z,13.54
2022-09-15T02:39:58.965Z,13.48
2022-09-15T02:42:32.007Z,13.47
2022-09-15T02:45:01.331Z,13.40
2022-09-15T02:47:28.706Z,13.33
2022-09-15T02:49:55.926Z,13.34
2022-09-15T02:52:22.549Z,13.27
2022-09-15T02:54:50.298Z,13.25
2022-09-15T02:57:17.052Z,13.20
2022-09-15T03:00:02.000Z,13.15
2022-09-15T03:02:28.816Z,13.17
2022-09-15T03:04:55.336Z,13.27
2022-09-15T03:07:21.767Z,13.37
2022-09-15T03:09:48.203Z,13.34
2022-09-15T03:12:14.658Z,13.29
2022-09-15T03:14:41.106Z,13.32
2022-09-15T03:17:07.546Z,13.28
2022-09-15T03:19:33.981Z,13.31
2022-09-15T03:22:00.447Z,13.34
2022-09-15T03:24:26.955Z,13.45
2022-09-15T03:26:53.411Z,13.54
2022-09-15T03:29:19.939Z,13.63
2022-09-15T03:31:46.442Z,13.69
2022-09-15T03:34:13.001Z,13.74
2022-09-15T03:36:39.611Z,13.71
2022-09-15T03:39:06.088Z,13.70
2022-09-15T03:41:32.542Z,13.74
2022-09-15T03:43:59.080Z,13.62
2022-09-15T03:46:25.554Z,13.54
2022-09-15T03:48:51.992Z,13.38
2022-09-15T03:51:18.479Z,13.22
2022-09-15T03:53:44.948Z,13.22
2022-09-15T03:56:22.776Z,13.22
2022-09-15T03:58:49.963Z,13.21
2022-09-15T04:01:18.952Z,13.16
2022-09-15T04:03:50.910Z,13.12
2022-09-15T04:06:20.779Z,13.06
2022-09-15T04:08:48.424Z,12.92
2022-09-15T04:11:16.310Z,12.73
2022-09-15T04:13:43.937Z,12.67
2022-09-15T04:16:14.935Z,12.66
2022-09-15T04:18:41.678Z,12.59
2022-09-15T04:21:15.861Z,12.50
2022-09-15T04:23:44.227Z,12.41
2022-09-15T04:26:24.251Z,12.25
2022-09-15T04:28:50.684Z,12.24
2022-09-15T04:31:18.459Z,12.20
2022-09-15T04:33:46.832Z,12.11
2022-09-15T04:36:18.163Z,11.97
2022-09-15T04:38:45.654Z,11.89
2022-09-15T04:41:13.070Z,11.88
2022-09-15T04:43:40.418Z,11.98
2022-09-15T04:46:07.610Z,12.11
2022-09-15T04:48:35.385Z,12.19
2022-09-15T04:51:12.268Z,12.14
2022-09-15T04:53:39.008Z,11.92
2022-09-15T04:56:17.473Z,11.83
2022-09-15T04:58:51.376Z,11.80
2022-09-15T05:01:25.546Z,11.86
2022-09-15T05:03:52.877Z,11.91
2022-09-15T05:06:25.235Z,11.96
2022-09-15T05:08:55.819Z,11.99
2022-09-15T05:11:23.519Z,11.89
2022-09-15T05:13:50.107Z,11.83
2022-09-15T05:16:20.581Z,11.79
2022-09-15T05:18:49.695Z,11.76
2022-09-15T05:21:21.860Z,11.81
2022-09-15T05:23:50.257Z,11.91
2022-09-15T05:26:22.750Z,12.00
2022-09-15T05:28:50.067Z,11.90
2022-09-15T05:31:20.685Z,11.81
2022-09-15T05:33:49.569Z,11.86
2022-09-15T05:36:18.428Z,11.98
2022-09-15T05:38:45.215Z,11.95
2022-09-15T05:41:17.538Z,11.91
2022-09-15T05:43:46.516Z,11.90
2022-09-15T05:46:14.662Z,12.05
2022-09-15T05:48:41.205Z,12.12
2022-09-15T05:51:07.921Z,12.14
2022-09-15T05:53:36.167Z,12.10
2022-09-15T05:56:07.583Z,12.07
2022-09-15T05:58:34.457Z,12.14
2022-09-15T06:01:13.204Z,12.22
2022-09-15T06:03:40.598Z,12.31
2022-09-15T06:06:07.527Z,12.38
2022-09-15T06:08:54.053Z,12.45
2022-09-15T06:11:27.587Z,12.59
2022-09-15T06:13:54.112Z,12.66
2022-09-15T06:16:24.502Z,12.77
2022-09-15T06:18:53.359Z,12.73
2022-09-15T06:21:27.722Z,12.73
2022-09-15T06:23:55.495Z,12.83
2022-09-15T06:26:22.371Z,12.90
2022-09-15T06:28:55.555Z,12.97
2022-09-15T06:31:24.019Z,13.05
2022-09-15T06:33:53.103Z,13.11
2022-09-15T06:36:23.100Z,13.15
2022-09-15T06:38:50.726Z,13.16
2022-09-15T06:41:17.753Z,13.20
2022-09-15T06:43:45.367Z,13.24
2022-09-15T06:46:16.487Z,13.21
2022-09-15T06:48:48.021Z,13.28
2022-09-15T06:51:17.387Z,13.36
2022-09-15T06:53:44.971Z,13.39
2022-09-15T06:56:15.402Z,13.48
2022-09-15T06:58:43.898Z,13.56
2022-09-15T07:01:18.481Z,13.57
2022-09-15T07:03:45.009Z,13.64
2022-09-15T07:06:14.807Z,13.64
2022-09-15T07:08:42.272Z,13.65
2022-09-15T07:11:10.859Z,13.71
2022-09-15T07:13:37.637Z,13.77
2022-09-15T07:16:08.455Z,13.82
2022-09-15T07:18:39.710Z,13.71
2022-09-15T07:21:13.954Z,13.79
2022-09-15T07:23:41.741Z,13.91
2022-09-15T07:26:22.340Z,13.98
2022-09-15T07:28:56.182Z,14.07
2022-09-15T07:31:27.081Z,14.12
2022-09-15T07:33:53.835Z,14.22
2022-09-15T07:36:21.379Z,14.36
2022-09-15T07:38:49.895Z,14.41
2022-09-15T07:41:20.583Z,14.44
2022-09-15T07:43:50.506Z,14.50
2022-09-15T07:46:19.174Z,14.56
2022-09-15T07:48:47.505Z,14.60
2022-09-15T07:51:15.000Z,14.71
2022-09-15T07:53:43.249Z,14.79
2022-09-15T07:56:09.769Z,14.82
2022-09-15T07:58:36.221Z,14.87
2022-09-15T08:01:11.471Z,14.93
2022-09-15T08:03:43.301Z,14.95
2022-09-15T08:06:10.917Z,14.87
2022-09-15T08:08:39.693Z,14.86
2022-09-15T08:11:18.272Z,14.92
2022-09-15T08:13:47.841Z,14.99
2022-09-15T08:16:18.963Z,14.96
2022-09-15T08:18:45.856Z,14.96
2022-09-15T08:21:17.474Z,15.01
2022-09-15T08:23:44.404Z,15.05
2022-09-15T08:26:14.310Z,15.08
2022-09-15T08:28:42.418Z,15.09
2022-09-15T08:31:12.466Z,14.98
2022-09-15T08:33:44.555Z,15.07
2022-09-15T08:36:13.159Z,15.21
2022-09-15T08:38:41.478Z,15.30
2022-09-15T08:41:17.171Z,15.34
2022-09-15T08:44:26.511Z,15.30
2022-09-15T08:47:14.378Z,15.32
2022-09-15T08:50:10.478Z,15.37
2022-09-15T08:53:13.905Z,15.47
2022-09-15T08:55:46.825Z,15.63
2022-09-15T08:58:17.782Z,15.74
2022-09-15T09:00:48.554Z,15.76
2022-09-15T09:04:04.543Z,15.64
2022-09-15T09:06:52.361Z,15.72
2022-09-15T09:09:34.527Z,15.72
2022-09-15T09:12:34.717Z,15.73
2022-09-15T09:15:32.681Z,15.79
2022-09-15T09:18:25.815Z,15.97
2022-09-15T09:21:24.044Z,16.06
2022-09-15T09:24:22.019Z,16.08
2022-09-15T09:29:36.651Z,16.20
2022-09-15T09:32:04.209Z,16.34
2022-09-15T09:34:47.900Z,16.45
2022-09-15T09:37:17.027Z,16.47
2022-09-15T09:39:43.577Z,16.56
2022-09-15T09:42:18.195Z,16.44
2022-09-15T09:44:46.143Z,16.47
2022-09-15T09:47:13.231Z,16.39
2022-09-15T09:49:48.326Z,16.37
2022-09-15T09:52:34.235Z,16.44
2022-09-15T09:55:26.924Z,16.48
2022-09-15T09:57:54.647Z,16.64
2022-09-15T10:00:40.272Z,16.66
2022-09-15T10:03:29.254Z,16.78
2022-09-15T10:06:20.518Z,16.70
2022-09-15T10:09:08.783Z,16.63
2022-09-15T10:11:43.415Z,16.48
2022-09-15T10:14:40.480Z,16.27
2022-09-15T10:17:18.797Z,16.30
2022-09-15T10:19:59.028Z,16.34
2022-09-15T10:22:37.384Z,16.36
2022-09-15T10:25:23.720Z,16.21
2022-09-15T10:28:09.843Z,16.24
2022-09-15T10:30:37.166Z,16.29
2022-09-15T10:33:24.723Z,16.16
2022-09-15T10:35:54.476Z,16.09
2022-09-15T10:38:49.775Z,16.07
2022-09-15T10:41:37.582Z,16.13
2022-09-15T10:44:36.658Z,16.27
2022-09-15T10:47:18.434Z,16.40
2022-09-15T10:50:18.931Z,16.52
2022-09-15T10:53:55.581Z,16.52
2022-09-15T10:56:34.963Z,16.52
2022-09-15T10:59:34.078Z,16.56
2022-09-15T11:02:27.042Z,16.71
2022-09-15T11:05:12.568Z,16.86
2022-09-15T11:08:14.070Z,16.67
2022-09-15T11:11:23.031Z,16.48
2022-09-15T11:14:27.543Z,16.46
2022-09-15T11:17:22.372Z,16.40
2022-09-15T11:20:22.971Z,16.26
2022-09-15T11:23:11.409Z,16.29
2022-09-15T11:25:50.771Z,16.35
2022-09-15T11:28:45.089Z,16.56
2022-09-15T11:31:24.214Z,16.76
2022-09-15T11:34:06.898Z,16.84
2022-09-15T11:36:51.147Z,16.88
2022-09-15T11:39:29.871Z,16.91
2022-09-15T11:42:14.050Z,16.83
2022-09-15T11:44:45.134Z,16.77
2022-09-15T11:47:26.022Z,16.92
2022-09-15T11:50:03.323Z,17.13
2022-09-15T11:53:08.280Z,17.15
2022-09-15T11:55:47.081Z,16.93
2022-09-15T11:58:34.595Z,16.84
2022-09-15T12:01:12.718Z,16.78
2022-09-15T12:03:52.646Z,16.68
2022-09-15T12:09:30.419Z,16.41
2022-09-15T12:12:05.776Z,16.47
2022-09-15T12:14:43.411Z,16.59
2022-09-15T12:17:28.760Z,16.66
2022-09-15T12:20:17.284Z,16.66
2022-09-15T12:22:59.083Z,16.74
2022-09-15T12:26:01.211Z,16.81
2022-09-15T12:28:42.340Z,16.79
2022-09-15T12:31:41.298Z,16.97
2022-09-15T12:34:38.324Z,17.06
2022-09-15T12:37:14.525Z,17.03
2022-09-15T12:39:46.937Z,16.99
2022-09-15T12:42:31.241Z,17.17
2022-09-15T12:45:22.491Z,17.26
2022-09-15T12:47:54.911Z,17.27
2022-09-15T12:50:38.314Z,17.30
2022-09-15T12:53:23.263Z,17.20
2022-09-15T12:55:58.342Z,17.03
2022-09-15T12:58:42.021Z,16.88
2022-09-15T13:01:26.940Z,16.71
2022-09-15T13:03:57.766Z,16.62
2022-09-15T13:06:29.603Z,16.59
2022-09-15T13:09:01.895Z,16.54
2022-09-15T13:11:36.707Z,16.55
2022-09-15T13:14:10.514Z,16.58
2022-09-15T13:17:06.911Z,16.53
2022-09-15T13:19:33.285Z,16.47
2022-09-15T13:22:11.830Z,16.45
2022-09-15T13:25:14.593Z,16.38
2022-09-15T13:27:58.637Z,16.36
2022-09-15T13:30:56.793Z,16.37
2022-09-15T13:40:48.860Z,16.00
2022-09-15T13:43:53.410Z,16.18
2022-09-15T13:46:39.473Z,16.01
2022-09-15T13:49:54.504Z,15.96
2022-09-15T13:52:22.280Z,16.05
2022-09-15T13:55:14.472Z,16.05
2022-09-15T14:00:56.657Z,15.87
2022-09-15T14:03:36.863Z,15.65
2022-09-15T14:06:13.560Z,15.57
2022-09-15T14:08:43.755Z,15.64
2022-09-15T14:11:21.537Z,15.67
2022-09-15T14:13:51.366Z,15.74
2022-09-15T14:16:28.451Z,15.80
2022-09-15T14:18:58.432Z,15.88
2022-09-15T14:21:29.503Z,15.95
2022-09-15T14:24:03.350Z,16.01
2022-09-15T14:26:33.320Z,16.06
2022-09-15T14:29:03.688Z,16.06
2022-09-15T14:31:33.996Z,16.06
2022-09-15T14:34:02.494Z,16.13
2022-09-15T14:36:32.684Z,16.25
2022-09-15T14:39:10.515Z,16.24
2022-09-15T14:41:40.598Z,16.17
2022-09-15T14:47:28.473Z,16.24
2022-09-15T14:50:19.605Z,16.25
2022-09-15T14:53:08.228Z,16.31
2022-09-15T14:56:05.623Z,16.40
2022-09-15T14:58:46.259Z,16.46
2022-09-15T15:01:31.285Z,16.40
2022-09-15T15:04:16.415Z,16.34
2022-09-15T15:07:05.342Z,16.30
2022-09-15T15:09:51.122Z,16.13
2022-09-15T15:12:42.047Z,16.00
2022-09-15T15:15:12.321Z,16.00
2022-09-15T15:17:51.584Z,15.99
2022-09-15T15:20:23.855Z,16.01
2022-09-15T15:23:11.924Z,15.83
2022-09-15T15:25:39.266Z,15.61
2022-09-15T15:28:06.544Z,15.46
2022-09-15T15:30:46.546Z,15.37
2022-09-15T15:33:27.408Z,15.41
2022-09-15T15:36:04.305Z,15.46
2022-09-15T15:38:41.718Z,15.46
2022-09-15T15:41:33.420Z,15.41
2022-09-15T15:44:23.725Z,15.29
2022-09-15T15:47:03.506Z,15.20
2022-09-15T15:49:32.749Z,15.12
2022-09-15T15:52:01.684Z,15.18
2022-09-15T15:54:28.670Z,15.30
2022-09-15T15:56:55.582Z,15.40
2022-09-15T15:59:22.110Z,15.42
2022-09-15T16:01:53.042Z,15.33
2022-09-15T16:04:19.702Z,15.31
2022-09-15T16:06:47.005Z,15.29
2022-09-15T16:09:17.322Z,15.31
2022-09-15T16:11:43.842Z,15.29
2022-09-15T16:14:14.164Z,15.29
2022-09-15T16:16:40.907Z,15.34
2022-09-15T16:19:08.393Z,15.40
2022-09-15T16:21:42.315Z,15.34
2022-09-15T16:24:15.933Z,15.31
2022-09-15T16:26:43.070Z,15.24
2022-09-15T16:29:10.005Z,15.18
2022-09-15T16:31:37.444Z,15.16
2022-09-15T16:34:04.002Z,15.06
2022-09-15T16:36:34.893Z,15.00
2022-09-15T16:39:01.345Z,15.02
2022-09-15T16:41:27.833Z,15.04
2022-09-15T16:43:55.860Z,14.97
2022-09-15T16:46:22.603Z,14.90
2022-09-15T16:48:49.067Z,14.82
2022-09-15T16:51:29.517Z,14.80
2022-09-15T16:53:57.785Z,14.69
2022-09-15T16:56:24.307Z,14.66
2022-09-15T16:58:58.854Z,14.62
2022-09-15T17:01:26.353Z,14.51
2022-09-15T17:03:52.859Z,14.48
2022-09-15T17:06:19.399Z,14.48
2022-09-15T17:08:45.955Z,14.53
2022-09-15T17:11:17.043Z,14.54
2022-09-15T17:13:44.770Z,14.51
2022-09-15T17:16:14.800Z,14.49
2022-09-15T17:18:41.466Z,14.50
2022-09-15T17:21:11.585Z,14.46
2022-09-15T17:23:42.846Z,14.45
2022-09-15T17:26:20.819Z,14.40
2022-09-15T17:28:47.625Z,14.42
2022-09-15T17:31:20.899Z,14.32
2022-09-15T17:33:49.722Z,14.27
2022-09-15T17:36:16.722Z,14.28
2022-09-15T17:38:45.212Z,14.20
2022-09-15T17:41:15.258Z,14.13
2022-09-15T17:43:41.852Z,14.07
2022-09-15T17:46:08.984Z,14.03
2022-09-15T17:48:38.485Z,14.00
2022-09-15T17:51:07.032Z,13.97
2022-09-15T17:53:33.548Z,13.98
2022-09-15T17:56:00.204Z,13.90
2022-09-15T17:58:26.834Z,13.77
2022-09-15T18:00:54.208Z,13.68
2022-09-15T18:03:29.964Z,13.59
2022-09-15T18:05:59.450Z,13.58
2022-09-15T18:08:27.492Z,13.51
2022-09-15T18:10:54.404Z,13.43
2022-09-15T18:13:24.166Z,13.39
2022-09-15T18:15:50.986Z,13.38
2022-09-15T18:18:21.522Z,13.32
2022-09-15T18:20:53.009Z,13.31
2022-09-15T18:23:25.554Z,13.30
2022-09-15T18:25:52.723Z,13.31
2022-09-15T18:28:19.758Z,13.35
2022-09-15T18:30:49.778Z,13.31
2022-09-15T18:33:25.702Z,13.25
2022-09-15T18:35:58.850Z,13.22
2022-09-15T18:38:25.834Z,13.15
2022-09-15T18:40:55.849Z,13.13
2022-09-15T18:43:26.653Z,13.14
2022-09-15T18:45:59.706Z,13.10
2022-09-15T18:48:26.557Z,13.01
2022-09-15T18:50:53.346Z,12.83
2022-09-15T18:53:19.876Z,12.67
2022-09-15T18:55:46.320Z,12.56
2022-09-15T18:58:13.423Z,12.58
2022-09-15T19:00:40.504Z,12.56
2022-09-15T19:03:09.434Z,12.53
2022-09-15T19:05:36.953Z,12.43
2022-09-15T19:08:04.357Z,12.39
2022-09-15T19:10:31.117Z,12.39
2022-09-15T19:12:57.655Z,12.43
2022-09-15T19:15:24.281Z,12.51
2022-09-15T19:17:51.722Z,12.46
2022-09-15T19:20:18.751Z,12.34
2022-09-15T19:22:46.027Z,12.33
2022-09-15T19:25:12.673Z,12.36
2022-09-15T19:27:40.183Z,12.31
2022-09-15T19:30:09.998Z,12.31
2022-09-15T19:32:38.281Z,12.27
2022-09-15T19:35:06.359Z,12.20
2022-09-15T19:37:38.129Z,12.16
2022-09-15T19:40:09.502Z,12.03
2022-09-15T19:42:40.626Z,11.97
2022-09-15T19:45:09.590Z,12.05
2022-09-15T19:47:36.826Z,11.96
2022-09-15T19:50:05.574Z,11.94
2022-09-15T19:52:32.461Z,11.95
2022-09-15T19:54:58.951Z,11.88
2022-09-15T19:57:25.459Z,11.81
2022-09-15T19:59:51.899Z,11.89
2022-09-15T20:02:18.699Z,11.90
2022-09-15T20:04:45.375Z,12.02
2022-09-15T20:07:12.509Z,12.05
2022-09-15T20:09:39.299Z,12.03
2022-09-15T20:12:05.962Z,11.99
2022-09-15T20:14:32.417Z,12.04
2022-09-15T20:17:01.137Z,11.92
2022-09-15T20:19:28.498Z,11.80
2022-09-15T20:21:55.188Z,11.61
2022-09-15T20:24:23.636Z,11.49
2022-09-15T20:26:51.098Z,11.42
2022-09-15T20:29:17.858Z,11.43
2022-09-15T20:31:44.394Z,11.41
2022-09-15T20:34:10.847Z,11.36
2022-09-15T20:36:38.915Z,11.28
2022-09-15T20:39:12.866Z,11.15
2022-09-15T20:41:41.886Z,11.15
2022-09-15T20:44:11.611Z,11.12
2022-09-15T20:46:38.191Z,11.09
2022-09-15T20:49:04.973Z,11.14
2022-09-15T20:51:33.452Z,11.23
2022-09-15T20:54:03.221Z,11.27
2022-09-15T20:56:32.831Z,11.35
2022-09-15T20:59:00.435Z,11.45
2022-09-15T21:01:36.605Z,11.29
2022-09-15T21:04:04.007Z,11.28
2022-09-15T21:06:31.519Z,11.29
2022-09-15T21:08:58.488Z,11.23
2022-09-15T21:11:27.554Z,11.14
2022-09-15T21:13:55.481Z,11.12
2022-09-15T21:16:26.015Z,11.02
2022-09-15T21:18:52.797Z,10.91
2022-09-15T21:21:26.194Z,10.97
2022-09-15T21:24:00.151Z,11.11
2022-09-15T21:26:30.824Z,11.21
2022-09-15T21:28:57.544Z,11.19
2022-09-15T21:31:30.901Z,11.15
2022-09-15T21:33:59.342Z,10.99
2022-09-15T21:36:30.617Z,10.97
2022-09-15T21:38:59.419Z,10.90
2022-09-15T21:41:32.493Z,10.89
2022-09-15T21:44:00.731Z,10.83
2022-09-15T21:46:31.085Z,10.75
2022-09-15T21:49:00.195Z,10.69
2022-09-15T21:51:29.775Z,10.65
2022-09-15T21:53:59.099Z,10.59
2022-09-15T21:56:28.086Z,10.51
2022-09-15T21:58:54.813Z,10.52
2022-09-15T22:01:31.263Z,10.54
2022-09-15T22:04:01.699Z,10.65
2022-09-15T22:06:40.069Z,10.79
2022-09-15T22:09:12.952Z,10.86
2022-09-15T22:11:39.668Z,10.86
2022-09-15T22:14:10.405Z,10.85
2022-09-15T22:16:39.660Z,10.85
2022-09-15T22:19:12.303Z,10.84
2022-09-15T22:21:41.677Z,10.79
2022-09-15T22:24:12.580Z,10.73
2022-09-15T22:26:41.418Z,10.77
2022-09-15T22:29:07.921Z,10.83
2022-09-15T22:31:35.232Z,10.88
2022-09-15T22:34:02.609Z,10.89
2022-09-15T22:36:31.307Z,10.88
2022-09-15T22:39:05.018Z,10.77
2022-09-15T22:41:36.423Z,10.57
2022-09-15T22:44:05.457Z,10.51
2022-09-15T22:46:32.673Z,10.43
2022-09-15T22:48:59.667Z,10.46
2022-09-15T22:51:26.209Z,10.42
2022-09-15T22:53:54.630Z,10.44
2022-09-15T22:56:21.425Z,10.44
2022-09-15T22:58:49.836Z,10.38
2022-09-15T23:01:23.586Z,10.32
2022-09-15T23:04:02.005Z,10.22
2022-09-15T23:06:33.487Z,10.19
2022-09-15T23:09:08.889Z,10.19
2022-09-15T23:11:39.654Z,10.18
2022-09-15T23:14:15.152Z,10.13
2022-09-15T23:16:42.965Z,9.94
2022-09-15T23:19:13.264Z,9.91
2022-09-15T23:21:40.183Z,10.00
2022-09-15T23:24:08.301Z,10.06
2022-09-15T23:26:34.812Z,10.12
2022-09-15T23:29:01.286Z,10.17
2022-09-15T23:31:27.833Z,10.23
2022-09-15T23:33:54.329Z,10.24
2022-09-15T23:36:21.104Z,10.24
2022-09-15T23:38:48.992Z,10.16
2022-09-15T23:41:17.565Z,10.11
2022-09-15T23:43:45.113Z,10.05
2022-09-15T23:46:11.850Z,9.92
2022-09-15T23:48:38.419Z,9.88
2022-09-15T23:51:05.538Z,9.84
2022-09-15T23:53:32.037Z,9.75
2022-09-15T23:55:59.797Z,9.71
2022-09-15T23:58:26.951Z,9.74
